This is the latest recevied weather packets stored in our database for station/object N7BTW-13. If no packets are shown the sender has not sent any weather packets the latest 1 day(s).
| Time | Temp. | Humidity | Pressure | Rain* | Wind** | Luminosity | Snow |
|---|---|---|---|---|---|---|---|
| 1778097012 | 19.44° C | 75% | 1021.4 hPa | 0 mm | - | - | - |
| 1778095807 | 20.56° C | 76% | 1021.4 hPa | 0 mm | - | - | - |
| 1778092810 | 17.22° C | 80% | 1021.6 hPa | 0 mm | - | - | - |
| 1778088606 | 16.67° C | 82% | 1021.4 hPa | 0 mm | - | - | - |
| 1778087407 | 16.11° C | 84% | 1021.4 hPa | 0 mm | - | - | - |
| 1778083214 | 15° C | 89% | 1021.3 hPa | 0 mm | - | - | - |
| 1778073610 | 11.67° C | 98% | 1020.2 hPa | 0 mm | - | - | - |
| 1778073008 | 11.67° C | 97% | 1020.2 hPa | 0 mm | - | - | - |
| 1778072407 | 11.67° C | 96% | 1020 hPa | 0 mm | - | - | - |
| 1778071809 | 11.67° C | 95% | 1019.9 hPa | 0 mm | - | - | - |
| 1778070009 | 12.78° C | 94% | 1019.6 hPa | 0 mm | - | - | - |
| 1778068208 | 13.33° C | 95% | 1019.7 hPa | 0 mm | - | - | - |
| 1778065806 | 13.33° C | 95% | 1019.5 hPa | 0 mm | - | - | - |
| 1778064009 | 13.33° C | 95% | 1019 hPa | 0 mm | - | - | - |
| 1778061607 | 13.33° C | 94% | 1018.6 hPa | 0 mm | - | - | - |
| 1778058008 | 13.89° C | 93% | 1018.3 hPa | 0 mm | - | - | - |
| 1778056809 | 13.89° C | 92% | 1018.3 hPa | 0 mm | - | - | - |
| 1778055609 | 13.89° C | 92% | 1018.2 hPa | 0 mm | - | - | - |
| 1778052008 | 14.44° C | 92% | 1017.8 hPa | 0 mm | - | - | - |
| 1778051409 | 14.44° C | 91% | 1017.8 hPa | 0 mm | - | - | - |
| 1778050811 | 14.44° C | 92% | 1017.7 hPa | 0 mm | - | - | - |
| 1778049610 | 14.44° C | 92% | 1017.6 hPa | 0 mm | - | - | - |
| 1778049009 | 14.44° C | 92% | 1017.6 hPa | 0 mm | - | - | - |
| 1778047808 | 14.44° C | 93% | 1017.5 hPa | 0 mm | - | - | - |
| 1778046612 | 14.44° C | 91% | 1017.5 hPa | 0 mm | - | - | - |
* Rain latest hour (hover to see other rain measurements)
** Current wind speed in m/s (hover to see current wind gust speed)